KBQK

Brunswick Golden Isles Airport

Brunswick, Georgia, USA
METAR KBQK 241215Z AUTO 00000KT M1/4SM FG OVC012 15/13 A3026 RMK AO2
Observed Flight Rules
Feb-24 @ 12:15 UTC (8 minutes ago) Instrument Flight Rules
Wind Visibility Clouds Conditions
Calm 1/4 miles
  • Overcast at 1,200' AGL
  • Fog
Temperatures Readings
Current 15°C / 59°F
Dewpoint 13°C / 55°F
Humidity 88%
Altimeter 30.26" Hg
Pressure 1025 hPa
Elevation 8
METAR KBQK 241215Z AUTO 00000KT M1/4SM FG OVC012 15/13 A3026 RMK AO2
Observed Flight Rules
Feb-24 @ 12:15 UTC
(8 minutes ago)
LIFR
Wind Visibility
Calm 1/4 miles
Clouds
  • Overcast at 1,200' AGL
Conditions
  • Fog
Temperature Dewpoint
15°C / 59°F 13°C / 55°F
Humidity Altimeter Pressure
88% 30.26" Hg 1025 hPa